createdAt,value
2019-06-01T00:01:55.909Z,9.88
2019-06-01T00:04:27.945Z,10.60
2019-06-01T00:06:59.832Z,6.65
2019-06-01T00:09:31.734Z,4.70
2019-06-01T00:12:03.411Z,10.78
2019-06-01T00:14:35.540Z,6.80
2019-06-01T00:17:07.234Z,9.05
2019-06-01T00:19:39.943Z,8.63
2019-06-01T00:22:11.843Z,6.55
2019-06-01T00:24:44.360Z,8.13
2019-06-01T00:27:16.122Z,10.48
2019-06-01T00:29:49.517Z,12.03
2019-06-01T00:32:21.554Z,8.78
2019-06-01T00:34:53.390Z,12.03
2019-06-01T00:37:25.252Z,10.00
2019-06-01T00:39:57.345Z,8.98
2019-06-01T00:42:29.291Z,11.70
2019-06-01T00:45:01.151Z,13.22
2019-06-01T00:47:33.151Z,12.50
2019-06-01T00:50:08.164Z,12.20
2019-06-01T00:52:39.948Z,9.45
2019-06-01T00:55:11.684Z,20.15
2019-06-01T00:57:43.545Z,18.75
2019-06-01T01:00:15.404Z,35.48
2019-06-01T01:02:48.036Z,33.60
2019-06-01T01:05:20.282Z,27.35
2019-06-01T01:07:53.567Z,32.45
2019-06-01T01:10:25.901Z,26.30
2019-06-01T01:13:06.615Z,32.33
2019-06-01T01:15:39.162Z,29.90
2019-06-01T01:18:11.072Z,34.43
2019-06-01T01:20:42.781Z,26.87
2019-06-01T01:23:14.745Z,28.05
2019-06-01T01:25:46.825Z,29.02
2019-06-01T01:28:18.807Z,29.37
2019-06-01T01:31:06.594Z,23.73
2019-06-01T01:33:25.819Z,31.40
2019-06-01T01:35:57.912Z,24.37
2019-06-01T01:38:29.849Z,30.55
2019-06-01T01:41:01.835Z,29.70
2019-06-01T01:43:33.704Z,19.60
2019-06-01T01:46:05.697Z,23.67
2019-06-01T01:48:37.672Z,17.20
2019-06-01T01:51:09.679Z,22.93
2019-06-01T01:53:41.472Z,21.05
2019-06-01T01:56:13.322Z,24.52
2019-06-01T01:58:45.401Z,22.52
2019-06-01T02:01:22.860Z,24.60
2019-06-01T02:03:51.812Z,24.27
2019-06-01T02:06:24.331Z,27.75
2019-06-01T02:08:57.111Z,21.50
2019-06-01T02:11:29.288Z,23.27
2019-06-01T02:14:02.081Z,17.57
2019-06-01T02:16:35.365Z,22.42
2019-06-01T02:19:07.280Z,21.17
2019-06-01T02:21:39.192Z,23.87
2019-06-01T02:24:11.148Z,18.17
2019-06-01T02:26:42.967Z,20.68
2019-06-01T02:29:14.876Z,24.65
2019-06-01T02:31:46.784Z,18.87
2019-06-01T02:34:18.599Z,17.65
2019-06-01T02:36:50.501Z,22.27
2019-06-01T02:39:22.377Z,27.15
2019-06-01T02:41:56.683Z,17.75
2019-06-01T02:44:28.700Z,29.10
2019-06-01T02:47:01.550Z,18.77
2019-06-01T02:49:33.559Z,16.73
2019-06-01T02:52:06.141Z,16.62
2019-06-01T02:54:37.945Z,17.00
2019-06-01T02:57:09.954Z,20.20
2019-06-01T02:59:41.869Z,20.05
2019-06-01T03:02:15.042Z,18.27
2019-06-01T03:04:47.273Z,20.77
2019-06-01T03:07:19.265Z,25.20
2019-06-01T03:09:51.068Z,19.55
2019-06-01T03:12:22.873Z,20.70
2019-06-01T03:14:54.945Z,25.35
2019-06-01T03:17:26.836Z,16.40
2019-06-01T03:19:59.637Z,15.30
2019-06-01T03:22:33.242Z,20.95
2019-06-01T03:25:05.985Z,13.68
2019-06-01T03:27:38.418Z,15.23
2019-06-01T03:30:14.567Z,12.75
2019-06-01T03:32:46.361Z,17.92
2019-06-01T03:35:18.214Z,13.03
2019-06-01T03:37:50.530Z,10.72
2019-06-01T03:40:23.929Z,16.12
2019-06-01T03:42:56.099Z,14.87
2019-06-01T03:45:28.164Z,15.78
2019-06-01T03:48:00.485Z,12.63
2019-06-01T03:50:32.559Z,12.73
2019-06-01T03:53:04.409Z,13.20
2019-06-01T03:55:36.271Z,14.43
2019-06-01T03:58:09.125Z,10.75
2019-06-01T04:00:41.221Z,11.50
2019-06-01T04:03:13.187Z,14.58
2019-06-01T04:05:45.142Z,14.03
2019-06-01T04:08:17.142Z,8.95
2019-06-01T04:10:48.892Z,13.90
2019-06-01T04:13:20.887Z,17.40
2019-06-01T04:15:52.738Z,16.85
2019-06-01T04:18:24.686Z,13.25
2019-06-01T04:20:56.408Z,12.13
2019-06-01T04:23:28.251Z,12.43
2019-06-01T04:25:59.956Z,17.45
2019-06-01T04:28:31.834Z,13.10
2019-06-01T04:31:04.557Z,13.55
2019-06-01T04:33:36.621Z,27.02
2019-06-01T04:36:08.990Z,19.82
2019-06-01T04:38:41.103Z,13.40
2019-06-01T04:41:14.128Z,15.93
2019-06-01T04:43:46.290Z,29.90
2019-06-01T04:46:18.174Z,22.15
2019-06-01T04:48:50.150Z,21.93
2019-06-01T04:51:21.938Z,28.70
2019-06-01T04:53:53.889Z,23.32
2019-06-01T04:56:26.855Z,19.07
2019-06-01T04:58:58.719Z,19.15
2019-06-01T05:01:30.467Z,15.90
2019-06-01T05:04:02.322Z,21.82
2019-06-01T05:06:35.284Z,18.27
2019-06-01T05:09:09.290Z,21.93
2019-06-01T05:11:41.412Z,18.32
2019-06-01T05:14:13.802Z,15.38
2019-06-01T05:16:45.625Z,14.43
2019-06-01T05:19:17.414Z,14.50
2019-06-01T05:21:49.254Z,17.52
2019-06-01T05:24:21.429Z,15.72
2019-06-01T05:26:53.256Z,23.62
2019-06-01T05:29:25.244Z,14.68
2019-06-01T05:31:57.905Z,21.23
2019-06-01T05:34:29.792Z,17.25
2019-06-01T05:37:01.643Z,14.98
2019-06-01T05:39:33.566Z,17.62
2019-06-01T05:42:05.390Z,15.83
2019-06-01T05:44:37.174Z,14.30
2019-06-01T05:47:10.041Z,12.05
2019-06-01T05:49:42.007Z,16.45
2019-06-01T05:52:14.491Z,16.57
2019-06-01T05:54:46.459Z,14.47
2019-06-01T05:57:19.474Z,11.55
2019-06-01T05:59:51.271Z,13.70
2019-06-01T06:02:23.140Z,19.35
2019-06-01T06:04:54.953Z,57.43
2019-06-01T06:07:26.903Z,12.37
2019-06-01T06:09:58.795Z,25.75
2019-06-01T06:12:30.764Z,39.63
2019-06-01T06:15:02.681Z,20.10
2019-06-01T06:17:34.923Z,12.07
2019-06-01T06:20:06.768Z,10.05
2019-06-01T06:22:41.184Z,18.57
2019-06-01T06:25:14.170Z,14.38
2019-06-01T06:27:46.415Z,15.98
2019-06-01T06:30:19.007Z,53.95
2019-06-01T06:32:50.990Z,85.57
2019-06-01T06:35:23.713Z,100.65
2019-06-01T06:37:55.755Z,83.27
2019-06-01T06:40:27.731Z,88.62
2019-06-01T06:42:59.613Z,51.53
2019-06-01T06:45:31.565Z,67.70
2019-06-01T06:48:03.531Z,15.05
2019-06-01T06:50:35.313Z,34.53
2019-06-01T06:53:07.231Z,17.02
2019-06-01T06:55:40.303Z,16.60
2019-06-01T06:58:12.137Z,39.60
2019-06-01T07:00:43.930Z,75.10
2019-06-01T07:03:16.860Z,52.70
2019-06-01T07:05:48.879Z,19.20
2019-06-01T07:08:21.759Z,12.82
2019-06-01T07:10:53.836Z,14.90
2019-06-01T07:15:59.714Z,14.33
2019-06-01T07:18:31.937Z,12.65
2019-06-01T07:21:03.884Z,13.32
2019-06-01T07:23:35.830Z,15.35
2019-06-01T07:26:07.780Z,15.80
2019-06-01T07:28:40.563Z,14.63
2019-06-01T07:31:12.417Z,29.07
2019-06-01T07:33:44.275Z,11.80
2019-06-01T07:36:16.232Z,11.40
2019-06-01T07:38:48.265Z,12.23
2019-06-01T07:41:20.669Z,8.95
2019-06-01T07:43:52.521Z,16.30
2019-06-01T07:46:24.898Z,8.60
2019-06-01T07:48:56.648Z,8.45
2019-06-01T07:51:29.635Z,19.82
2019-06-01T07:54:01.596Z,12.05
2019-06-01T07:56:33.399Z,14.30
2019-06-01T07:59:05.413Z,11.03
2019-06-01T08:01:37.211Z,13.22
2019-06-01T08:04:09.006Z,12.45
2019-06-01T08:06:46.391Z,11.88
2019-06-01T08:09:14.200Z,10.45
2019-06-01T08:11:45.991Z,15.20
2019-06-01T08:14:17.872Z,22.58
2019-06-01T08:16:49.717Z,16.15
2019-06-01T08:19:22.087Z,13.05
2019-06-01T08:21:54.218Z,15.65
2019-06-01T08:24:26.246Z,13.10
2019-06-01T08:26:58.130Z,9.80
2019-06-01T08:29:30.735Z,11.53
2019-06-01T08:32:02.656Z,76.95
2019-06-01T08:34:34.570Z,15.95
2019-06-01T08:37:06.384Z,13.90
2019-06-01T08:39:38.180Z,12.80
2019-06-01T08:42:10.106Z,12.03
2019-06-01T08:44:41.893Z,6.78
2019-06-01T08:47:13.658Z,9.03
2019-06-01T08:49:45.335Z,10.78
2019-06-01T08:52:17.199Z,9.43
2019-06-01T08:54:48.942Z,11.80
2019-06-01T08:57:20.713Z,6.80
2019-06-01T08:59:52.323Z,10.80
2019-06-01T09:02:24.583Z,5.58
2019-06-01T09:04:56.419Z,5.42
2019-06-01T09:07:28.991Z,14.60
2019-06-01T09:10:00.982Z,5.08
2019-06-01T09:12:33.294Z,6.30
2019-06-01T09:15:07.519Z,6.15
2019-06-01T09:17:39.219Z,5.33
2019-06-01T09:20:10.923Z,7.40
2019-06-01T09:22:42.654Z,3.47
2019-06-01T09:25:14.434Z,6.72
2019-06-01T09:27:46.237Z,7.42
2019-06-01T09:30:17.918Z,7.03
2019-06-01T09:32:49.730Z,9.68
2019-06-01T09:35:21.710Z,3.87
2019-06-01T09:37:53.564Z,11.68
2019-06-01T09:40:27.299Z,10.18
2019-06-01T09:42:58.831Z,4.05
2019-06-01T09:45:30.480Z,14.25
2019-06-01T09:48:02.335Z,10.85
2019-06-01T09:50:35.281Z,3.70
2019-06-01T09:53:07.378Z,6.20
2019-06-01T09:55:40.255Z,5.83
2019-06-01T09:58:15.018Z,8.65
2019-06-01T10:00:48.227Z,8.03
2019-06-01T10:03:19.962Z,5.33
2019-06-01T10:06:01.412Z,19.52
2019-06-01T10:08:25.188Z,12.47
2019-06-01T10:10:57.016Z,7.37
2019-06-01T10:13:30.322Z,7.30
2019-06-01T10:16:02.087Z,15.48
2019-06-01T10:18:35.221Z,14.33
2019-06-01T10:21:23.770Z,5.03
2019-06-01T10:23:55.542Z,7.35
2019-06-01T10:26:28.030Z,8.88
2019-06-01T10:28:59.769Z,28.15
2019-06-01T10:31:32.610Z,7.42
2019-06-01T10:34:04.848Z,8.63
2019-06-01T10:36:37.997Z,4.25
2019-06-01T10:39:09.989Z,6.55
2019-06-01T10:41:41.847Z,4.10
2019-06-01T10:44:13.718Z,6.05
2019-06-01T10:46:45.481Z,10.98
2019-06-01T10:49:17.357Z,10.35
2019-06-01T10:51:49.453Z,6.08
2019-06-01T10:54:21.337Z,9.93
2019-06-01T10:56:53.394Z,13.22
2019-06-01T10:59:25.336Z,5.87
2019-06-01T11:01:57.181Z,9.23
2019-06-01T11:04:28.963Z,10.40
2019-06-01T11:07:00.988Z,7.53
2019-06-01T11:09:33.034Z,6.85
2019-06-01T11:12:04.973Z,7.17
2019-06-01T11:14:37.115Z,7.65
2019-06-01T11:17:09.080Z,11.68
2019-06-01T11:19:42.076Z,8.45
2019-06-01T11:22:14.115Z,9.30
2019-06-01T11:24:45.968Z,11.45
2019-06-01T11:27:17.909Z,10.48
2019-06-01T11:29:51.721Z,5.95
2019-06-01T11:32:23.652Z,8.83
2019-06-01T11:34:55.500Z,5.30
2019-06-01T11:37:27.265Z,7.30
2019-06-01T11:39:59.059Z,8.78
2019-06-01T11:42:31.117Z,8.40
2019-06-01T11:45:03.042Z,4.97
2019-06-01T11:47:34.999Z,13.90
2019-06-01T11:50:07.106Z,7.17
2019-06-01T11:52:41.070Z,4.00
2019-06-01T11:55:13.122Z,3.85
2019-06-01T11:57:45.903Z,9.40
2019-06-01T12:00:17.988Z,7.90
2019-06-01T12:02:49.884Z,4.55
2019-06-01T12:05:21.595Z,2.70
2019-06-01T12:07:53.515Z,10.63
2019-06-01T12:10:25.411Z,6.35
2019-06-01T12:12:57.274Z,5.90
2019-06-01T12:15:29.109Z,9.33
2019-06-01T12:18:00.933Z,9.60
2019-06-01T12:20:32.699Z,8.35
2019-06-01T12:23:04.470Z,3.30
2019-06-01T12:25:36.185Z,9.75
2019-06-01T12:28:08.016Z,7.20
2019-06-01T12:30:39.815Z,2.15
2019-06-01T12:33:11.830Z,4.45
2019-06-01T12:35:44.021Z,7.33
2019-06-01T12:38:15.966Z,9.75
2019-06-01T12:40:47.858Z,2.87
2019-06-01T12:43:19.783Z,4.28
2019-06-01T12:46:05.527Z,4.53
2019-06-01T12:48:25.265Z,4.83
2019-06-01T12:50:57.043Z,6.53
2019-06-01T12:53:28.873Z,5.12
2019-06-01T12:56:00.724Z,3.27
2019-06-01T12:58:32.596Z,6.37
2019-06-01T13:01:04.482Z,4.85
2019-06-01T13:03:36.213Z,10.30
2019-06-01T13:06:08.160Z,5.72
2019-06-01T13:08:40.661Z,7.97
2019-06-01T13:11:14.201Z,2.47
2019-06-01T13:13:47.337Z,4.40
2019-06-01T13:16:19.157Z,2.70
2019-06-01T13:18:51.683Z,8.35
2019-06-01T13:21:27.546Z,3.58
2019-06-01T13:23:57.730Z,6.80
2019-06-01T13:26:29.558Z,23.25
2019-06-01T13:29:01.581Z,3.22
2019-06-01T13:31:34.501Z,5.60
2019-06-01T13:34:06.307Z,3.80
2019-06-01T13:36:38.151Z,10.13
2019-06-01T13:39:10.272Z,3.50
2019-06-01T13:41:43.012Z,6.90
2019-06-01T13:44:14.921Z,7.10
2019-06-01T13:46:49.469Z,6.62
2019-06-01T13:49:21.516Z,6.90
2019-06-01T13:51:54.560Z,3.52
2019-06-01T13:54:26.530Z,4.55
2019-06-01T13:56:58.348Z,5.33
2019-06-01T13:59:30.164Z,4.22
2019-06-01T14:02:02.087Z,3.33
2019-06-01T14:04:34.059Z,7.55
2019-06-01T14:07:05.851Z,4.65
2019-06-01T14:09:37.829Z,2.72
2019-06-01T14:12:09.554Z,5.85
2019-06-01T14:14:41.381Z,5.90
2019-06-01T14:17:13.230Z,5.12
2019-06-01T14:19:45.645Z,4.83
2019-06-01T14:22:17.493Z,7.55
2019-06-01T14:24:59.843Z,6.67
2019-06-01T14:27:22.795Z,4.50
2019-06-01T14:29:54.899Z,6.70
2019-06-01T14:32:26.691Z,4.42
2019-06-01T14:34:58.559Z,7.97
2019-06-01T14:37:30.424Z,7.95
2019-06-01T14:40:02.353Z,5.10
2019-06-01T14:42:34.386Z,8.73
2019-06-01T14:45:07.761Z,7.20
2019-06-01T14:47:39.477Z,7.60
2019-06-01T14:50:12.877Z,4.17
2019-06-01T14:52:44.590Z,6.70
2019-06-01T14:55:16.556Z,3.15
2019-06-01T14:57:49.946Z,4.53
2019-06-01T15:00:23.087Z,3.47
2019-06-01T15:02:54.883Z,6.90
2019-06-01T15:05:26.712Z,3.95
2019-06-01T15:07:59.175Z,4.47
2019-06-01T15:10:31.068Z,11.38
2019-06-01T15:13:03.623Z,10.03
2019-06-01T15:15:35.673Z,11.03
2019-06-01T15:18:10.831Z,8.03
2019-06-01T15:20:42.782Z,10.55
2019-06-01T15:23:14.622Z,12.10
2019-06-01T15:25:46.618Z,14.90
2019-06-01T15:28:18.587Z,9.33
2019-06-01T15:30:50.838Z,16.52
2019-06-01T15:33:22.917Z,11.48
2019-06-01T15:35:55.960Z,8.78
2019-06-01T15:38:28.044Z,19.67
2019-06-01T15:41:00.557Z,19.50
2019-06-01T15:43:32.578Z,11.80
2019-06-01T15:46:04.445Z,10.40
2019-06-01T15:48:36.352Z,10.98
2019-06-01T15:51:08.759Z,9.70
2019-06-01T15:53:40.623Z,12.78
2019-06-01T15:56:12.504Z,10.72
2019-06-01T15:58:52.823Z,9.33
2019-06-01T16:01:18.074Z,15.38
2019-06-01T16:03:49.982Z,17.77
2019-06-01T16:06:21.976Z,18.87
2019-06-01T16:08:55.128Z,21.80
2019-06-01T16:11:27.457Z,17.27
2019-06-01T16:13:59.905Z,20.00
2019-06-01T16:16:31.976Z,21.52
2019-06-01T16:19:07.751Z,15.83
2019-06-01T16:21:37.650Z,13.78
2019-06-01T16:24:09.713Z,13.98
2019-06-01T16:26:41.691Z,14.65
2019-06-01T16:29:13.596Z,16.02
2019-06-01T16:31:45.621Z,13.90
2019-06-01T16:34:17.512Z,10.88
2019-06-01T16:36:49.499Z,17.15
2019-06-01T16:39:21.407Z,11.33
2019-06-01T16:41:53.276Z,7.67
2019-06-01T16:44:25.088Z,12.80
2019-06-01T16:46:57.643Z,37.85
2019-06-01T16:49:29.680Z,16.75
2019-06-01T16:52:03.049Z,14.45
2019-06-01T16:54:35.234Z,14.23
2019-06-01T16:57:07.441Z,14.87
2019-06-01T16:59:39.401Z,13.00
2019-06-01T17:02:11.468Z,15.38
2019-06-01T17:04:43.360Z,13.80
2019-06-01T17:07:15.366Z,12.28
2019-06-01T17:09:47.253Z,8.88
2019-06-01T17:12:19.109Z,12.25
2019-06-01T17:14:51.020Z,10.25
2019-06-01T17:17:23.147Z,12.50
2019-06-01T17:19:55.356Z,11.35
2019-06-01T17:22:28.247Z,10.13
2019-06-01T17:25:00.149Z,10.03
2019-06-01T17:27:32.246Z,18.30
2019-06-01T17:30:09.290Z,9.20
2019-06-01T17:32:38.584Z,8.25
2019-06-01T17:35:10.391Z,9.85
2019-06-01T17:37:42.366Z,8.53
2019-06-01T17:40:14.313Z,19.67
2019-06-01T17:42:46.336Z,8.38
2019-06-01T17:45:18.141Z,7.42
2019-06-01T17:47:50.019Z,9.40
2019-06-01T17:50:22.542Z,8.43
2019-06-01T17:52:54.624Z,11.75
2019-06-01T17:55:29.420Z,9.58
2019-06-01T17:58:01.601Z,12.50
2019-06-01T18:00:33.828Z,13.48
2019-06-01T18:03:10.089Z,13.10
2019-06-01T18:05:43.475Z,14.40
2019-06-01T18:08:15.511Z,11.25
2019-06-01T18:10:54.660Z,11.90
2019-06-01T18:13:21.203Z,15.03
2019-06-01T18:15:53.150Z,11.70
2019-06-01T18:18:25.295Z,13.20
2019-06-01T18:20:57.183Z,11.55
2019-06-01T18:23:29.294Z,11.53
2019-06-01T18:26:02.432Z,10.65
2019-06-01T18:28:34.840Z,9.05
2019-06-01T18:31:06.813Z,16.05
2019-06-01T18:33:38.736Z,16.48
2019-06-01T18:36:11.620Z,18.92
2019-06-01T18:38:43.775Z,23.67
2019-06-01T18:41:19.477Z,21.73
2019-06-01T18:43:49.383Z,19.00
2019-06-01T18:46:21.279Z,11.75
2019-06-01T18:48:53.368Z,22.10
2019-06-01T18:51:25.428Z,17.57
2019-06-01T18:53:57.375Z,13.65
2019-06-01T18:56:29.348Z,16.65
2019-06-01T18:59:04.868Z,12.00
2019-06-01T19:01:36.645Z,17.73
2019-06-01T19:04:09.702Z,11.85
2019-06-01T19:06:41.927Z,15.05
2019-06-01T19:09:13.872Z,15.63
2019-06-01T19:11:45.856Z,15.63
2019-06-01T19:14:17.819Z,21.45
2019-06-01T19:16:49.705Z,25.80
2019-06-01T19:19:21.700Z,19.07
2019-06-01T19:21:54.687Z,19.37
2019-06-01T19:24:26.635Z,20.80
2019-06-01T19:26:59.284Z,18.05
2019-06-01T19:29:31.287Z,17.55
2019-06-01T19:32:03.258Z,15.93
2019-06-01T19:34:36.373Z,18.20
2019-06-01T19:37:08.972Z,16.77
2019-06-01T19:39:41.285Z,20.27
2019-06-01T19:42:15.526Z,18.70
2019-06-01T19:44:47.880Z,19.70
2019-06-01T19:47:19.889Z,10.55
2019-06-01T19:49:51.784Z,17.07
2019-06-01T19:52:23.885Z,16.02
2019-06-01T19:54:55.868Z,12.82
2019-06-01T19:57:27.925Z,20.30
2019-06-01T19:59:59.883Z,88.17
2019-06-01T20:02:34.266Z,85.40
2019-06-01T20:05:06.476Z,66.02
2019-06-01T20:07:38.535Z,97.37
2019-06-01T20:10:10.723Z,55.35
2019-06-01T20:12:42.686Z,68.55
2019-06-01T20:15:15.515Z,35.52
2019-06-01T20:17:47.740Z,25.88
2019-06-01T20:20:19.824Z,25.48
2019-06-01T20:22:52.087Z,19.42
2019-06-01T20:25:24.040Z,15.05
2019-06-01T20:27:56.003Z,14.63
2019-06-01T20:30:28.151Z,23.45
2019-06-01T20:33:00.261Z,15.35
2019-06-01T20:35:32.211Z,13.83
2019-06-01T20:38:04.273Z,12.23
2019-06-01T20:40:36.314Z,12.65
2019-06-01T20:43:08.339Z,10.68
2019-06-01T20:45:40.364Z,10.50
2019-06-01T20:48:13.338Z,11.25
2019-06-01T20:50:45.950Z,4.00
2019-06-01T20:53:18.940Z,9.18
2019-06-01T20:55:50.894Z,6.58
2019-06-01T20:58:23.796Z,8.50
2019-06-01T21:00:56.524Z,9.38
2019-06-01T21:03:28.423Z,6.37
2019-06-01T21:06:00.388Z,14.13
2019-06-01T21:08:32.491Z,9.20
2019-06-01T21:11:04.386Z,8.23
2019-06-01T21:13:36.169Z,9.23
2019-06-01T21:16:08.045Z,8.28
2019-06-01T21:18:39.987Z,11.10
2019-06-01T21:21:14.202Z,10.40
2019-06-01T21:23:46.369Z,9.00
2019-06-01T21:26:18.925Z,7.62
2019-06-01T21:28:50.918Z,9.53
2019-06-01T21:31:23.201Z,8.48
2019-06-01T21:33:55.237Z,10.20
2019-06-01T21:36:27.146Z,9.53
2019-06-01T21:38:59.063Z,8.05
2019-06-01T21:41:30.974Z,6.92
2019-06-01T21:44:02.847Z,5.92
2019-06-01T21:46:34.691Z,7.72
2019-06-01T21:49:06.558Z,8.30
2019-06-01T21:51:38.384Z,4.55
2019-06-01T21:54:10.178Z,6.53
2019-06-01T21:56:42.471Z,6.67
2019-06-01T21:59:14.276Z,6.17
2019-06-01T22:01:46.184Z,5.53
2019-06-01T22:04:19.082Z,7.65
2019-06-01T22:06:51.090Z,8.68
2019-06-01T22:09:23.367Z,7.83
2019-06-01T22:11:55.508Z,14.60
2019-06-01T22:14:27.744Z,6.70
2019-06-01T22:16:59.747Z,3.52
2019-06-01T22:19:31.618Z,4.62
2019-06-01T22:22:03.447Z,6.72
2019-06-01T22:24:35.343Z,4.15
2019-06-01T22:27:07.156Z,6.83
2019-06-01T22:29:39.038Z,5.33
2019-06-01T22:32:10.867Z,5.85
2019-06-01T22:34:42.746Z,5.28
2019-06-01T22:37:14.608Z,4.42
2019-06-01T22:39:46.400Z,4.53
2019-06-01T22:42:18.275Z,8.15
2019-06-01T22:44:50.284Z,4.62
2019-06-01T22:47:22.545Z,5.65
2019-06-01T22:49:54.655Z,6.53
2019-06-01T22:52:27.068Z,4.92
2019-06-01T22:54:59.069Z,5.12
2019-06-01T22:57:31.043Z,6.10
2019-06-01T23:00:02.887Z,3.60
2019-06-01T23:02:34.621Z,6.03
2019-06-01T23:05:06.532Z,4.05
2019-06-01T23:07:38.578Z,3.90
2019-06-01T23:10:10.711Z,6.22
2019-06-01T23:12:42.564Z,6.47
2019-06-01T23:15:14.340Z,5.45
2019-06-01T23:17:46.228Z,8.18
2019-06-01T23:20:17.893Z,11.63
2019-06-01T23:22:49.870Z,2.35
2019-06-01T23:25:22.551Z,6.15
2019-06-01T23:27:54.689Z,5.67
2019-06-01T23:30:26.483Z,8.73
2019-06-01T23:32:58.411Z,6.87
2019-06-01T23:35:30.706Z,7.00
2019-06-01T23:38:02.615Z,4.10
2019-06-01T23:40:34.334Z,5.42
2019-06-01T23:43:07.746Z,4.78
2019-06-01T23:45:39.510Z,8.88
2019-06-01T23:48:11.436Z,4.55
2019-06-01T23:50:43.260Z,5.05
2019-06-01T23:53:15.108Z,5.67
2019-06-01T23:55:46.882Z,6.40
2019-06-01T23:58:18.948Z,6.53
